Time;durP1;ratioP1;P1;durP2;ratioP2;P2;SDS_P1;SDS_P2;PMS_P1;PMS_P2;Temp;Humidity;BMP_temperature;BMP_pressure;BME280_temperature;BME280_humidity;BME280_pressure;Samples;Min_cycle;Max_cycle;Signal;HPM_P1;HPM_P2
2021/06/15 00:02:11;;;;;;;8.60;6.38;;;;;;;18.15;60.96;99919.63;5029440;28;20540;-65
2021/06/15 00:04:37;;;;;;;10.52;8.10;;;;;;;18.09;60.05;99922.81;5030055;28;20481;-66
2021/06/15 00:07:02;;;;;;;9.70;7.35;;;;;;;18.08;59.75;99923.75;5029506;28;20512;-66
2021/06/15 00:09:27;;;;;;;12.73;6.85;;;;;;;18.03;60.75;99923.28;5029578;28;20132;-65
2021/06/15 00:11:53;;;;;;;11.85;6.90;;;;;;;17.99;60.50;99932.47;5027764;28;20065;-66
2021/06/15 00:14:18;;;;;;;15.07;6.95;;;;;;;17.94;60.61;99931.97;5027820;28;20107;-65
2021/06/15 00:16:44;;;;;;;8.88;6.55;;;;;;;17.88;60.93;99932.47;5028907;28;20106;-66
2021/06/15 00:19:09;;;;;;;12.98;6.90;;;;;;;17.80;61.34;99928.56;5029209;28;20037;-65
2021/06/15 00:21:34;;;;;;;9.10;6.15;;;;;;;17.77;61.29;99919.91;5029871;28;20049;-65
2021/06/15 00:24:00;;;;;;;8.02;5.72;;;;;;;17.75;61.67;99927.22;5029032;28;20473;-66
2021/06/15 00:26:25;;;;;;;9.68;7.38;;;;;;;17.71;61.50;99931.06;5029101;28;20045;-66
2021/06/15 00:28:50;;;;;;;9.40;6.30;;;;;;;17.68;61.77;99931.31;5029227;28;20029;-65
2021/06/15 00:31:16;;;;;;;10.95;5.75;;;;;;;17.62;61.67;99932.59;5029268;28;20034;-64
2021/06/15 00:33:41;;;;;;;12.65;7.43;;;;;;;17.54;61.82;99938.53;5027803;28;20045;-68
2021/06/15 00:36:07;;;;;;;11.38;6.60;;;;;;;17.55;61.69;99936.72;5029385;28;20049;-65
2021/06/15 00:38:32;;;;;;;12.63;6.28;;;;;;;17.51;62.04;99933.44;5032241;28;20033;-64
2021/06/15 00:40:58;;;;;;;14.20;6.13;;;;;;;17.47;61.62;99942.63;5037292;28;20041;-68
2021/06/15 00:43:23;;;;;;;11.10;6.80;;;;;;;17.43;61.78;99940.31;5038346;28;20037;-66
2021/06/15 00:45:49;;;;;;;13.27;6.38;;;;;;;17.35;62.25;99952.41;5036502;28;20547;-65
2021/06/15 00:48:30;;;;;;;7.13;5.03;;;;;;;17.31;62.83;99939.44;5038788;28;20068;-66
2021/06/15 00:50:56;;;;;;;9.70;5.93;;;;;;;17.25;62.72;99940.72;5035581;28;20528;-67
2021/06/15 00:53:21;;;;;;;10.93;6.20;;;;;;;17.15;63.63;99937.91;5037025;28;20033;-65
2021/06/15 00:55:47;;;;;;;8.93;5.00;;;;;;;17.06;64.22;99935.06;5036052;28;20038;-65
2021/06/15 00:58:12;;;;;;;7.43;6.32;;;;;;;17.00;64.40;99940.84;5035222;28;20033;-64
2021/06/15 01:00:38;;;;;;;12.85;7.50;;;;;;;16.98;64.02;99942.75;5010225;28;20068;-66
2021/06/15 01:03:03;;;;;;;12.57;6.40;;;;;;;16.97;63.87;99938.41;5032186;28;20691;-65
2021/06/15 01:05:29;;;;;;;13.13;5.88;;;;;;;16.95;63.90;99935.84;5032791;28;20041;-65
2021/06/15 01:08:16;;;;;;;15.60;7.53;;;;;;;16.91;64.33;99940.56;5033187;28;20121;-66
2021/06/15 01:10:57;;;;;;;10.07;6.82;;;;;;;16.89;64.36;99945.13;5032894;28;20033;-65
2021/06/15 01:13:56;;;;;;;9.73;7.35;;;;;;;16.84;64.50;99947.28;5031705;28;20037;-66
2021/06/15 01:16:36;;;;;;;15.80;7.22;;;;;;;16.78;64.66;99945.06;5032982;28;20112;-65
2021/06/15 01:19:22;;;;;;;11.27;6.47;;;;;;;16.78;64.38;99941.53;5032876;28;20499;-66
2021/06/15 01:21:57;;;;;;;12.68;7.38;;;;;;;16.76;64.36;99946.97;5031442;28;20044;-65
2021/06/15 01:24:32;;;;;;;11.47;7.37;;;;;;;16.73;64.87;99953.34;5032720;28;20119;-65
2021/06/15 01:27:21;;;;;;;13.40;6.72;;;;;;;16.70;65.06;99945.59;5032097;28;20755;-65
2021/06/15 01:29:49;;;;;;;12.63;7.03;;;;;;;16.66;65.21;99945.91;5032718;28;20487;-65
2021/06/15 01:32:28;;;;;;;9.85;7.22;;;;;;;16.59;65.79;99953.50;5032026;28;20041;-65
2021/06/15 01:34:54;;;;;;;11.00;6.47;;;;;;;16.52;66.06;99941.59;5032682;28;20064;-65
2021/06/15 01:37:25;;;;;;;13.48;6.90;;;;;;;16.52;65.94;99946.91;5031198;28;20048;-66
2021/06/15 01:39:57;;;;;;;8.77;6.35;;;;;;;16.46;66.29;99945.53;5031856;28;20041;-67
2021/06/15 01:42:39;;;;;;;11.82;6.60;;;;;;;16.40;66.16;99940.66;5032707;28;20515;-64
2021/06/15 01:45:06;;;;;;;14.15;6.82;;;;;;;16.41;66.35;99938.84;5032736;28;20034;-65
2021/06/15 01:47:33;;;;;;;8.25;6.00;;;;;;;16.38;66.23;99939.06;5031854;28;20443;-65
2021/06/15 01:50:04;;;;;;;10.80;7.05;;;;;;;16.34;66.74;99934.91;5032089;28;20053;-65
2021/06/15 01:52:40;;;;;;;12.27;6.65;;;;;;;16.28;66.50;99941.53;5032321;28;20036;-66
2021/06/15 01:55:09;;;;;;;12.73;6.82;;;;;;;16.23;66.66;99941.84;5029834;28;20072;-67
2021/06/15 01:57:36;;;;;;;11.60;6.07;;;;;;;16.20;67.04;99934.09;5031547;28;20044;-66
2021/06/15 02:00:10;;;;;;;9.57;7.28;;;;;;;16.18;66.84;99932.50;5030269;28;20105;-66
2021/06/15 02:02:38;;;;;;;9.38;6.45;;;;;;;16.10;67.42;99925.91;5031598;28;20202;-66
2021/06/15 02:05:07;;;;;;;12.20;7.35;;;;;;;16.05;67.40;99925.38;5031932;28;20107;-67
2021/06/15 02:07:37;;;;;;;8.23;5.68;;;;;;;16.05;67.17;99928.03;5030628;28;20512;-65
2021/06/15 02:10:10;;;;;;;10.65;6.80;;;;;;;16.03;67.60;99931.75;5031673;28;20044;-67
2021/06/15 02:12:40;;;;;;;11.95;7.00;;;;;;;15.98;67.77;99931.22;5030510;28;20040;-65
2021/06/15 02:15:08;;;;;;;9.95;6.70;;;;;;;16.02;67.30;99930.03;5026594;28;20037;-66
2021/06/15 02:17:35;;;;;;;11.18;7.85;;;;;;;16.01;67.56;99928.34;5031481;28;20080;-66
2021/06/15 02:20:00;;;;;;;11.48;6.40;;;;;;;15.95;67.46;99920.78;5031652;28;20112;-67
2021/06/15 02:22:29;;;;;;;13.00;7.10;;;;;;;15.94;67.66;99922.59;5031810;28;20432;-64
2021/06/15 02:24:57;;;;;;;13.15;7.53;;;;;;;15.85;67.85;99924.09;5031564;28;20553;-66
2021/06/15 02:27:24;;;;;;;10.13;8.00;;;;;;;15.84;67.90;99916.22;5031054;28;20053;-66
2021/06/15 02:29:53;;;;;;;9.73;6.38;;;;;;;15.84;67.91;99917.06;5029336;28;20037;-65
2021/06/15 02:32:23;;;;;;;15.73;6.35;;;;;;;15.81;68.00;99911.97;5029734;28;20540;-65
2021/06/15 02:34:50;;;;;;;10.50;7.32;;;;;;;15.76;68.42;99922.06;5031371;28;20052;-66
2021/06/15 02:37:24;;;;;;;13.90;8.13;;;;;;;15.74;68.44;99916.00;5031162;28;20036;-66
2021/06/15 02:39:51;;;;;;;12.57;7.82;;;;;;;15.66;68.62;99911.19;5031202;28;20049;-66
2021/06/15 02:42:18;;;;;;;10.68;7.20;;;;;;;15.65;68.58;99917.47;5030702;28;20034;-66
2021/06/15 02:44:46;;;;;;;9.30;7.82;;;;;;;15.63;68.73;99911.41;5031050;28;20112;-65
2021/06/15 02:47:14;;;;;;;11.55;7.45;;;;;;;15.63;68.92;99913.22;5031046;28;20030;-65
2021/06/15 02:49:48;;;;;;;16.48;7.15;;;;;;;15.63;68.94;99911.41;5030463;28;20113;-65
2021/06/15 02:52:20;;;;;;;9.10;7.18;;;;;;;15.63;68.72;99914.06;5030781;28;20041;-65
2021/06/15 02:54:57;;;;;;;14.48;8.38;;;;;;;15.61;68.68;99909.78;5030652;28;20044;-64
2021/06/15 02:57:25;;;;;;;12.88;7.78;;;;;;;15.55;69.17;99916.34;5030651;28;20084;-64
2021/06/15 02:59:52;;;;;;;16.73;8.35;;;;;;;15.56;68.79;99912.75;5029737;28;20033;-64
2021/06/15 03:02:18;;;;;;;9.70;7.65;;;;;;;15.58;68.78;99917.94;5030366;28;20400;-65
2021/06/15 03:04:46;;;;;;;13.18;7.38;;;;;;;15.55;68.76;99913.69;5029028;28;20040;-64
2021/06/15 03:07:13;;;;;;;10.20;6.88;;;;;;;15.56;68.73;99919.88;5030227;28;20033;-65
2021/06/15 03:09:39;;;;;;;11.13;8.35;;;;;;;15.51;69.31;99917.53;5029813;28;20488;-65
2021/06/15 03:12:25;;;;;;;10.60;7.80;;;;;;;15.49;69.22;99930.06;5030490;28;20140;-65
2021/06/15 03:14:56;;;;;;;;;;;;;;;15.46;69.17;99920.50;5030367;28;20512;-65
2021/06/15 03:17:27;;;;;;;12.23;8.35;;;;;;;15.46;69.18;99936.44;5029663;28;19913;-65
2021/06/15 03:20:06;;;;;;;10.30;8.35;;;;;;;15.45;69.21;99926.75;5028550;28;20041;-66
2021/06/15 03:22:40;;;;;;;10.95;7.88;;;;;;;15.44;69.46;99924.22;5030620;28;20033;-66
2021/06/15 03:25:07;;;;;;;10.73;8.20;;;;;;;15.39;69.31;99923.69;5028273;28;20420;-66
2021/06/15 03:27:39;;;;;;;9.43;7.30;;;;;;;15.35;69.94;99923.00;5029246;28;20029;-66
2021/06/15 03:30:08;;;;;;;11.98;8.30;;;;;;;15.36;70.23;99931.88;5030219;28;20030;-66
2021/06/15 03:32:40;;;;;;;11.70;7.70;;;;;;;15.33;70.03;99940.84;5030262;28;20040;-65
2021/06/15 03:35:06;;;;;;;14.63;8.90;;;;;;;15.33;69.98;99956.78;5026665;28;20544;-65
2021/06/15 03:37:34;;;;;;;11.43;7.88;;;;;;;15.38;69.69;99957.38;5030054;28;20168;-65
2021/06/15 03:40:01;;;;;;;16.02;9.85;;;;;;;15.41;69.59;99954.50;5028757;28;20065;-65
2021/06/15 03:42:37;;;;;;;12.93;8.27;;;;;;;15.44;69.47;99943.66;5029660;28;20037;-66
2021/06/15 03:45:06;;;;;;;17.25;8.45;;;;;;;15.48;69.32;99951.41;5010177;28;20034;-66
2021/06/15 03:47:34;;;;;;;12.35;7.97;;;;;;;15.50;69.04;99942.41;5010380;28;20034;-64
2021/06/15 03:50:01;;;;;;;14.52;9.00;;;;;;;15.46;69.32;99941.75;5010118;28;20113;-64
2021/06/15 03:52:30;;;;;;;17.75;9.63;;;;;;;15.46;69.13;99946.22;5010240;28;20038;-64
2021/06/15 03:54:56;;;;;;;11.43;8.07;;;;;;;15.43;69.69;99944.63;5009986;28;20104;-65
2021/06/15 03:57:26;;;;;;;13.20;8.23;;;;;;;15.43;69.53;99944.63;5009812;28;20531;-66
2021/06/15 03:59:53;;;;;;;15.27;8.00;;;;;;;15.42;69.63;99952.69;5010061;28;20115;-65
2021/06/15 04:02:20;;;;;;;13.45;8.15;;;;;;;15.40;69.68;99943.97;5010146;28;20386;-64
2021/06/15 04:04:47;;;;;;;12.75;8.00;;;;;;;15.40;69.76;99952.78;5009793;28;20034;-66
2021/06/15 04:07:19;;;;;;;9.45;6.82;;;;;;;15.43;69.44;99954.38;5009532;28;20096;-66
2021/06/15 04:09:47;;;;;;;11.70;8.07;;;;;;;15.45;69.60;99955.13;5009707;28;20528;-65
2021/06/15 04:12:13;;;;;;;18.23;9.77;;;;;;;15.47;69.42;99958.53;5009974;28;20038;-65
2021/06/15 04:14:43;;;;;;;14.18;8.93;;;;;;;15.53;69.43;99962.59;5010410;28;20045;-66
2021/06/15 04:17:10;;;;;;;11.10;8.27;;;;;;;15.52;69.41;99961.75;5006273;28;20033;-65
2021/06/15 04:19:41;;;;;;;12.30;8.82;;;;;;;15.57;69.43;99964.09;5009682;28;20061;-67
2021/06/15 04:22:09;;;;;;;11.93;8.75;;;;;;;15.63;69.11;99966.34;5008467;28;20120;-66
2021/06/15 04:24:37;;;;;;;15.05;8.23;;;;;;;15.68;69.25;99967.75;5009890;28;20088;-66
2021/06/15 04:27:03;;;;;;;12.10;8.40;;;;;;;15.71;69.10;99969.38;5009024;28;20034;-66
2021/06/15 04:29:29;;;;;;;11.77;7.97;;;;;;;15.75;68.64;99975.31;5008100;28;20037;-65
2021/06/15 04:31:59;;;;;;;18.73;13.75;;;;;;;15.79;68.95;99969.69;5009170;28;20068;-65
2021/06/15 04:34:26;;;;;;;11.80;9.23;;;;;;;15.83;68.80;99959.72;5009408;28;20030;-66
2021/06/15 04:36:57;;;;;;;11.80;8.57;;;;;;;15.88;68.98;99971.72;5009341;28;20038;-65
2021/06/15 04:39:23;;;;;;;11.32;9.35;;;;;;;15.94;68.74;99967.78;5009520;28;20054;-66
2021/06/15 04:41:58;;;;;;;11.75;8.65;;;;;;;16.01;68.80;99960.25;5009521;28;20038;-66
2021/06/15 04:44:32;;;;;;;11.82;8.60;;;;;;;16.09;68.47;99972.06;5009745;28;20033;-66
2021/06/15 04:47:02;;;;;;;12.68;8.50;;;;;;;16.16;68.39;99974.31;5007691;28;20037;-66
2021/06/15 04:49:27;;;;;;;20.88;9.60;;;;;;;16.22;68.22;99972.06;5009378;28;20448;-65
2021/06/15 04:51:55;;;;;;;12.13;7.88;;;;;;;16.33;68.17;99975.78;5009365;28;20042;-67
2021/06/15 04:54:22;;;;;;;13.32;10.60;;;;;;;16.48;69.01;99982.69;5009623;28;20038;-66
2021/06/15 04:56:49;;;;;;;21.92;11.85;;;;;;;16.68;68.15;99986.59;5009382;28;20042;-67
2021/06/15 04:59:15;;;;;;;16.60;10.85;;;;;;;16.88;67.66;99991.38;5008046;28;20054;-66
2021/06/15 05:01:43;;;;;;;22.10;12.65;;;;;;;17.06;68.17;99991.84;5009446;28;20038;-67
2021/06/15 05:04:08;;;;;;;21.73;15.70;;;;;;;17.28;67.99;99996.47;5026551;28;20075;-66
2021/06/15 05:06:39;;;;;;;16.27;12.65;;;;;;;17.53;67.35;100002.63;5028615;28;20029;-67
2021/06/15 05:09:05;;;;;;;24.83;16.88;;;;;;;17.68;67.23;100003.31;5029279;28;20048;-65
2021/06/15 05:11:35;;;;;;;27.58;19.63;;;;;;;17.68;67.67;100004.16;5028655;28;20029;-67
2021/06/15 05:14:06;;;;;;;25.58;19.80;;;;;;;17.71;68.10;100009.25;5026872;28;20120;-67
2021/06/15 05:16:33;;;;;;;24.75;21.55;;;;;;;17.67;68.48;100023.78;5028330;28;20034;-66
2021/06/15 05:18:59;;;;;;;24.10;18.95;;;;;;;17.74;68.29;100009.00;5027169;28;20034;-68
2021/06/15 05:21:32;;;;;;;26.38;19.67;;;;;;;17.81;68.15;100018.28;5026785;28;20470;-67
2021/06/15 05:24:03;;;;;;;23.42;19.15;;;;;;;17.92;67.98;100019.31;5031685;28;20049;-67
2021/06/15 05:26:31;;;;;;;28.85;21.50;;;;;;;18.02;67.80;100021.13;5031904;28;20087;-68
2021/06/15 05:28:57;;;;;;;31.63;18.95;;;;;;;18.21;66.98;100025.03;5032622;28;20417;-66
2021/06/15 05:31:22;;;;;;;42.53;21.52;;;;;;;18.17;67.14;100032.44;5034245;28;20040;-67
2021/06/15 05:33:47;;;;;;;33.40;20.52;;;;;;;18.32;66.79;100034.91;5031525;28;20042;-67
2021/06/15 05:36:13;;;;;;;26.95;19.15;;;;;;;18.30;67.12;100036.84;5031621;28;20042;-68
2021/06/15 05:38:38;;;;;;;27.05;19.92;;;;;;;18.42;66.58;100049.25;5032181;28;20546;-67
2021/06/15 05:41:04;;;;;;;30.08;22.75;;;;;;;18.48;66.55;100055.91;5031984;28;20026;-66
2021/06/15 05:43:29;;;;;;;37.20;24.42;;;;;;;18.64;66.04;100053.75;5030431;28;21101;-68
2021/06/15 05:45:54;;;;;;;29.52;21.88;;;;;;;18.67;66.28;100054.34;5031386;28;20110;-67
2021/06/15 05:48:20;;;;;;;28.10;16.85;;;;;;;18.91;65.92;100050.75;5032378;28;20044;-67
2021/06/15 05:50:48;;;;;;;30.92;23.92;;;;;;;18.95;65.60;100056.69;5030835;28;20052;-67
2021/06/15 05:53:13;;;;;;;29.88;23.23;;;;;;;18.89;65.86;100058.03;5030611;28;20065;-67
2021/06/15 05:55:39;;;;;;;24.92;21.50;;;;;;;19.00;65.59;100050.03;5032462;28;20053;-67
2021/06/15 05:58:04;;;;;;;35.40;25.92;;;;;;;19.17;64.90;100042.44;5030886;28;20033;-66
2021/06/15 06:00:30;;;;;;;30.23;24.05;;;;;;;19.19;64.90;100038.66;5033179;28;20116;-65
2021/06/15 06:02:55;;;;;;;30.63;22.85;;;;;;;19.35;64.40;100027.59;5032461;28;20080;-65
2021/06/15 06:08:05;;;;;;;28.00;23.80;;;;;;;19.60;63.51;100025.56;5031842;28;20035;-66
2021/06/15 06:10:30;;;;;;;31.35;26.77;;;;;;;19.57;63.56;100025.81;5032048;28;20071;-64
2021/06/15 06:12:56;;;;;;;27.80;22.52;;;;;;;19.57;63.90;100018.66;5031033;28;20077;-66
2021/06/15 06:15:21;;;;;;;27.10;20.60;;;;;;;19.78;63.30;100026.72;5033691;28;20048;-68
2021/06/15 06:17:47;;;;;;;33.92;22.90;;;;;;;19.77;63.24;100035.75;5030948;28;20034;-66
2021/06/15 06:20:15;;;;;;;40.85;23.38;;;;;;;19.86;63.03;100031.44;5031201;28;20056;-67
2021/06/15 06:22:41;;;;;;;29.73;23.00;;;;;;;19.76;63.15;100036.69;5031369;28;20033;-67
2021/06/15 06:25:09;;;;;;;35.53;25.35;;;;;;;19.79;63.23;100047.16;5031664;28;20087;-67
2021/06/15 06:27:38;;;;;;;30.00;22.08;;;;;;;19.92;62.74;100047.81;5031190;28;20052;-66
2021/06/15 06:30:05;;;;;;;32.13;23.98;;;;;;;20.13;62.30;100053.19;5031255;28;20026;-66
2021/06/15 06:32:30;;;;;;;32.38;24.50;;;;;;;20.31;61.49;100055.28;5030935;28;20166;-67
2021/06/15 06:34:55;;;;;;;33.88;26.13;;;;;;;20.37;61.59;100054.75;5030028;28;20124;-67
2021/06/15 06:37:21;;;;;;;28.48;25.13;;;;;;;20.61;60.53;100046.47;5031038;28;20059;-67
2021/06/15 06:39:46;;;;;;;31.30;23.58;;;;;;;20.93;59.95;100057.03;5031216;28;20120;-67
2021/06/15 06:42:12;;;;;;;25.02;20.63;;;;;;;21.26;59.20;100054.16;5031184;28;20026;-67
2021/06/15 06:44:37;;;;;;;26.00;21.95;;;;;;;21.43;57.97;100051.69;5031463;28;20033;-66
2021/06/15 06:47:03;;;;;;;26.85;18.60;;;;;;;21.62;57.48;100041.97;5030918;28;20032;-65
2021/06/15 06:49:28;;;;;;;30.75;24.42;;;;;;;21.76;57.60;100046.94;5029650;28;20033;-71
2021/06/15 06:51:53;;;;;;;31.50;24.80;;;;;;;21.86;56.96;100041.56;5030954;28;20103;-66
2021/06/15 06:54:19;;;;;;;33.75;23.17;;;;;;;21.78;57.20;100044.09;5030519;28;20039;-66
2021/06/15 06:56:44;;;;;;;31.15;22.00;;;;;;;21.74;57.88;100040.00;5030391;28;20037;-67
2021/06/15 06:59:10;;;;;;;27.92;21.33;;;;;;;21.97;56.59;100040.56;5031082;28;20111;-67
2021/06/15 07:01:35;;;;;;;35.83;24.13;;;;;;;22.19;55.79;100039.38;5030633;28;20068;-67
2021/06/15 07:04:00;;;;;;;32.58;19.77;;;;;;;22.25;55.54;100041.56;5030877;28;20202;-66
2021/06/15 07:06:26;;;;;;;32.08;22.52;;;;;;;22.22;55.54;100034.59;5028714;28;20447;-65
2021/06/15 07:08:52;;;;;;;27.75;21.52;;;;;;;22.08;55.65;100038.56;5030695;28;20444;-66
2021/06/15 07:11:18;;;;;;;33.13;21.80;;;;;;;22.25;55.04;100028.97;5030040;28;20044;-66
2021/06/15 07:13:43;;;;;;;25.38;19.50;;;;;;;22.50;54.65;100027.47;5028598;28;20041;-66
2021/06/15 07:16:09;;;;;;;27.50;23.42;;;;;;;22.45;54.94;100031.59;5030399;28;20171;-66
2021/06/15 07:18:36;;;;;;;23.67;18.02;;;;;;;22.69;54.51;100037.31;5029932;28;20057;-66
2021/06/15 07:21:04;;;;;;;24.17;19.48;;;;;;;22.85;53.86;100023.22;5030110;28;20620;-66
2021/06/15 07:23:29;;;;;;;31.15;20.98;;;;;;;22.88;54.12;100028.28;5030450;28;20112;-64
2021/06/15 07:25:54;;;;;;;24.02;21.20;;;;;;;23.09;53.40;100028.09;5030094;28;20033;-65
2021/06/15 07:28:20;;;;;;;23.92;17.65;;;;;;;23.56;52.23;100027.91;5030201;28;20033;-66
2021/06/15 07:30:45;;;;;;;29.88;18.92;;;;;;;23.95;50.69;100033.00;5022462;28;20039;-66
2021/06/15 07:33:11;;;;;;;24.38;21.63;;;;;;;24.19;49.67;100040.44;5037456;28;20049;-66
2021/06/15 07:35:36;;;;;;;25.00;19.15;;;;;;;24.44;49.20;100040.63;5030143;28;20030;-65
2021/06/15 07:38:01;;;;;;;27.10;19.98;;;;;;;24.97;47.96;100044.09;5028170;28;20030;-64
2021/06/15 07:40:27;;;;;;;28.80;22.27;;;;;;;25.22;48.01;100048.59;5030466;28;20569;-65
2021/06/15 07:42:55;;;;;;;24.33;19.55;;;;;;;25.53;46.71;100048.03;5029883;28;20037;-65
2021/06/15 07:45:22;;;;;;;32.83;21.67;;;;;;;25.87;45.44;100042.53;5029516;28;20036;-65
2021/06/15 07:47:48;;;;;;;22.45;17.02;;;;;;;26.10;45.12;100039.97;5029624;28;20047;-65
2021/06/15 07:50:14;;;;;;;34.13;24.35;;;;;;;25.98;44.96;100044.03;5029663;28;20033;-65
2021/06/15 07:52:41;;;;;;;21.83;17.35;;;;;;;26.39;44.86;100035.06;5028369;28;20040;-65
2021/06/15 07:55:06;;;;;;;24.33;21.38;;;;;;;26.65;44.04;100043.78;5024928;28;20079;-66
2021/06/15 07:57:32;;;;;;;29.73;24.05;;;;;;;26.23;43.90;100042.16;5028372;28;20030;-66
2021/06/15 07:59:57;;;;;;;29.10;24.20;;;;;;;25.89;45.06;100040.50;5026093;28;20097;-69
2021/06/15 08:02:23;;;;;;;28.23;22.17;;;;;;;25.68;45.54;100046.34;5021718;28;20048;-68
2021/06/15 08:04:48;;;;;;;23.27;19.85;;;;;;;25.77;45.57;100049.91;5002554;28;20049;-69
2021/06/15 08:07:14;;;;;;;24.92;17.73;;;;;;;26.12;45.34;100054.16;5028296;28;20033;-69
2021/06/15 08:09:40;;;;;;;40.80;23.23;;;;;;;26.45;44.90;100043.31;5027722;28;20041;-69
2021/06/15 08:12:05;;;;;;;22.13;18.00;;;;;;;26.73;43.79;100053.78;5022341;28;20072;-69
2021/06/15 08:14:31;;;;;;;27.35;20.27;;;;;;;26.83;43.62;100048.13;5029187;28;20392;-68
2021/06/15 08:16:56;;;;;;;24.45;21.25;;;;;;;26.86;43.13;100045.94;5027230;28;20175;-69
2021/06/15 08:19:21;;;;;;;27.98;22.10;;;;;;;26.70;44.01;100051.38;5029298;28;20032;-69
2021/06/15 08:21:47;;;;;;;22.25;18.80;;;;;;;26.61;43.83;100053.28;5027337;28;20532;-69
2021/06/15 08:24:15;;;;;;;32.35;18.48;;;;;;;26.63;44.21;100044.97;5015949;28;20038;-66
2021/06/15 08:26:44;;;;;;;34.30;22.85;;;;;;;26.21;44.68;100044.22;5020667;28;20037;-71
2021/06/15 08:29:09;;;;;;;26.25;21.45;;;;;;;25.48;45.96;100058.47;5012321;28;20044;-69
2021/06/15 08:31:34;;;;;;;25.88;19.23;;;;;;;25.30;45.37;100045.09;5018068;28;20037;-67
2021/06/15 08:34:00;;;;;;;24.33;18.80;;;;;;;25.47;45.44;100046.84;5022145;28;20049;-70
2021/06/15 08:36:25;;;;;;;36.63;19.55;;;;;;;25.80;45.49;100043.34;5020302;28;20049;-70
2021/06/15 08:38:51;;;;;;;26.08;18.25;;;;;;;26.06;44.65;100045.88;5023504;28;20080;-69
2021/06/15 08:41:18;;;;;;;26.23;20.75;;;;;;;25.97;44.35;100050.47;5008976;28;20550;-70
2021/06/15 08:43:43;;;;;;;37.38;21.25;;;;;;;25.76;44.99;100052.78;4992502;28;20540;-68
2021/06/15 08:46:11;;;;;;;23.13;19.35;;;;;;;25.40;45.60;100061.13;5019649;28;20060;-68
2021/06/15 08:48:36;;;;;;;24.80;18.67;;;;;;;25.61;45.18;100050.72;5022315;28;20120;-69
2021/06/15 08:51:02;;;;;;;19.70;16.27;;;;;;;25.67;44.59;100051.91;5023702;28;20067;-68
2021/06/15 08:53:32;;;;;;;24.00;16.42;;;;;;;26.25;43.21;100039.28;5021918;28;20033;-69
2021/06/15 08:56:03;;;;;;;19.58;17.25;;;;;;;26.47;43.27;100043.97;5022414;28;20102;-69
2021/06/15 08:58:52;;;;;;;22.92;16.65;;;;;;;27.02;42.07;100036.06;5026791;28;20034;-67
2021/06/15 09:01:17;;;;;;;22.65;15.25;;;;;;;27.68;40.54;100039.25;5027630;28;20043;-68
2021/06/15 09:03:43;;;;;;;30.45;19.55;;;;;;;27.68;39.62;100037.38;5028449;28;20396;-69
2021/06/15 09:06:08;;;;;;;24.55;18.52;;;;;;;27.36;39.74;100039.28;5006064;28;20033;-68
2021/06/15 09:08:53;;;;;;;22.50;15.68;;;;;;;27.47;39.82;100034.47;5028668;28;20079;-69
2021/06/15 09:11:20;;;;;;;21.33;17.08;;;;;;;27.70;40.46;100034.50;5026454;28;20045;-68
2021/06/15 09:13:47;;;;;;;30.92;17.50;;;;;;;28.22;39.58;100031.03;5029005;28;20492;-68
2021/06/15 09:16:18;;;;;;;19.85;16.35;;;;;;;28.17;39.29;100037.00;5032276;28;20056;-68
2021/06/15 09:18:44;;;;;;;16.25;10.75;;;;;;;28.64;38.19;100025.03;5034540;28;20408;-69
2021/06/15 09:21:10;;;;;;;16.35;11.77;;;;;;;29.25;36.23;100026.69;5027792;28;20072;-68
2021/06/15 09:23:38;;;;;;;20.13;11.00;;;;;;;29.51;35.64;100028.84;5038268;28;20060;-69
2021/06/15 09:26:06;;;;;;;16.65;10.18;;;;;;;29.10;34.24;100026.72;5025060;28;21554;-69
2021/06/15 09:28:32;;;;;;;12.98;9.88;;;;;;;29.47;34.77;100022.97;5030657;28;20121;-69
2021/06/15 09:30:57;;;;;;;17.85;9.68;;;;;;;29.75;34.10;100017.63;5029219;28;20079;-69
2021/06/15 09:33:46;;;;;;;13.70;7.70;;;;;;;29.74;34.61;100018.66;5028171;28;20037;-69
2021/06/15 09:36:14;;;;;;;10.77;7.30;;;;;;;30.48;32.51;100022.84;5027452;28;20416;-71
2021/06/15 09:39:06;;;;;;;9.05;6.68;;;;;;;30.99;31.37;100019.78;5027252;28;20037;-71
2021/06/15 09:41:40;;;;;;;10.80;5.68;;;;;;;30.90;32.28;100023.72;5026748;28;20512;-71
2021/06/15 09:44:32;;;;;;;11.13;7.25;;;;;;;30.35;33.52;100022.75;5026490;28;20059;-71
2021/06/15 09:47:04;;;;;;;10.63;7.68;;;;;;;30.89;32.11;100019.31;5025725;28;20065;-70
2021/06/15 09:49:34;;;;;;;11.85;6.32;;;;;;;31.08;32.10;100014.97;5025758;28;20107;-70
2021/06/15 09:52:19;;;;;;;13.00;7.45;;;;;;;31.64;30.79;100013.91;5026171;28;20046;-69
2021/06/15 09:54:47;;;;;;;6.68;5.22;;;;;;;31.98;30.54;100021.09;5022642;28;20049;-70
2021/06/15 09:57:22;;;;;;;11.25;6.05;;;;;;;32.29;30.31;100020.47;5018580;28;20038;-71
2021/06/15 10:00:12;;;;;;;10.25;5.65;;;;;;;31.42;30.97;100021.41;5026380;28;20100;-69
2021/06/15 10:02:54;;;;;;;6.95;5.45;;;;;;;31.06;32.28;100016.22;5023372;28;20120;-67
2021/06/15 10:05:37;;;;;;;13.95;7.43;;;;;;;31.06;32.65;100021.69;5025738;28;20035;-68
2021/06/15 10:08:07;;;;;;;10.95;6.70;;;;;;;30.42;34.07;100025.50;5026204;28;20040;-68
2021/06/15 10:10:40;;;;;;;9.48;6.63;;;;;;;30.56;34.05;100010.94;5025092;28;20042;-69
2021/06/15 10:13:06;;;;;;;9.75;7.10;;;;;;;30.27;33.65;100022.88;5026222;28;20046;-69
2021/06/15 10:15:33;;;;;;;8.95;5.47;;;;;;;29.70;34.98;100021.97;5024386;28;20093;-68
2021/06/15 10:17:59;;;;;;;6.00;5.35;;;;;;;29.86;35.10;100012.72;5026050;28;20034;-67
2021/06/15 10:20:28;;;;;;;12.30;6.07;;;;;;;29.60;35.26;100018.69;5023975;28;20068;-69
2021/06/15 10:22:54;;;;;;;8.73;5.40;;;;;;;30.34;33.58;100008.28;5026477;28;20101;-69
2021/06/15 10:25:21;;;;;;;7.60;4.88;;;;;;;30.36;33.46;100005.38;5025831;28;20107;-68
2021/06/15 10:27:49;;;;;;;10.45;4.63;;;;;;;29.41;35.85;100007.44;5024184;28;20377;-68
2021/06/15 10:30:20;;;;;;;8.98;5.18;;;;;;;28.95;36.38;100006.88;5015977;28;20127;-67
2021/06/15 10:32:51;;;;;;;7.30;3.92;;;;;;;29.60;35.37;100021.41;5016019;28;20061;-68
2021/06/15 10:35:30;;;;;;;6.45;4.57;;;;;;;29.92;34.80;100017.34;5025237;28;20034;-68
2021/06/15 10:37:56;;;;;;;7.65;4.20;;;;;;;30.12;34.43;100007.47;5025162;28;20400;-68
2021/06/15 10:40:21;;;;;;;7.68;4.25;;;;;;;30.35;34.01;100009.97;5025229;28;20048;-69
2021/06/15 10:43:11;;;;;;;6.93;4.43;;;;;;;29.62;34.84;100008.47;5025242;28;20046;-68
2021/06/15 10:45:37;;;;;;;11.20;4.18;;;;;;;29.12;35.95;100011.09;5025670;28;20273;-67
2021/06/15 10:48:06;;;;;;;7.15;4.80;;;;;;;29.53;35.18;100011.31;5024856;28;20120;-70
2021/06/15 10:50:38;;;;;;;11.40;5.22;;;;;;;28.22;37.01;100009.34;5025166;28;20082;-68
2021/06/15 10:53:08;;;;;;;12.55;6.18;;;;;;;27.71;38.55;100009.09;5023891;28;20672;-67
2021/06/15 10:55:50;;;;;;;7.35;4.40;;;;;;;28.23;37.25;100016.44;5024872;28;20108;-69
2021/06/15 10:58:44;;;;;;;7.18;4.63;;;;;;;28.22;37.43;100017.50;5024785;28;20466;-69
2021/06/15 11:01:14;;;;;;;7.18;4.90;;;;;;;27.90;37.78;100008.63;5023945;28;20351;-68
2021/06/15 11:03:49;;;;;;;10.77;4.00;;;;;;;27.53;38.76;100006.69;5025174;28;20385;-69
2021/06/15 11:06:14;;;;;;;12.05;4.18;;;;;;;27.19;38.53;100005.22;5024473;28;20037;-69
2021/06/15 11:08:40;;;;;;;5.88;3.55;;;;;;;27.13;38.56;99995.91;5025408;28;20060;-68
2021/06/15 11:11:18;;;;;;;5.43;3.22;;;;;;;27.35;38.20;99990.75;5024197;28;20083;-69
2021/06/15 11:13:46;;;;;;;8.02;4.50;;;;;;;27.27;38.70;99996.19;5024787;28;20060;-70
2021/06/15 11:16:44;;;;;;;10.80;3.22;;;;;;;27.48;38.08;100001.81;5025345;28;20056;-69
2021/06/15 11:19:09;;;;;;;12.18;5.00;;;;;;;27.10;38.39;100003.53;5022560;28;20095;-68
2021/06/15 11:21:44;;;;;;;12.55;4.47;;;;;;;27.00;38.29;99992.97;5023031;28;20041;-67
2021/06/15 11:24:20;;;;;;;;;;;;;;;27.06;38.49;99988.69;5024319;28;20049;-69
2021/06/15 11:26:47;;;;;;;;;;;;;;;27.19;38.05;99989.81;5025278;28;19936;-70
2021/06/15 11:29:28;;;;;;;7.03;3.58;;;;;;;27.31;37.83;99992.13;5025186;28;19917;-70
2021/06/15 11:31:53;;;;;;;6.93;3.13;;;;;;;27.46;37.63;99982.19;5021082;28;20096;-69